Capitol Logistics 71




PANC
Ted Stevens Anchorage International Airport
Anchorage, Alaska
KBWI
Baltimore/Washington International Thurgood Marshall Airport
Baltimore, Maryland

Route Details

Aircraft Information
Primary: Boeing 767-300BDSF
Backup: Boeing 747-400BCF
Route Data
Distance: 2928nm
Duration: 5h 20m
Recm'd Route: BGQ GKN ORT NCA17 TIBOY 63N30 YFS J521 YSM 59N08 58N04 YYL J521 YTH 5494N 5290N 5087N OVBAG OTNIK MUSIT Q917 PIKSA WOZEE IZZEE TRISH3
Origin Wx: PANC 020553Z 00000KT 10SM FEW180 18/12 A3009 RMK AO2 SLP190 T01830122 10228 20183 53000
Dest. Wx: KBWI 020554Z 29005KT 10SM CLR 18/16 A2990 RMK AO2 SLP125 60054 T01780161 10233 20178 51002
Notes: